Time;durP1;ratioP1;P1;durP2;ratioP2;P2;SDS_P1;SDS_P2;PMS_P1;PMS_P2;Temp;Humidity;BMP_temperature;BMP_pressure;BME280_temperature;BME280_humidity;BME280_pressure;Samples;Min_cycle;Max_cycle;Signal;HPM_P1;HPM_P2
2024/04/26 00:01:13;;;;;;;1.58;1.40;;;18.20;58.20;;;;;;6483123;22;20222;-83
2024/04/26 00:03:40;;;;;;;2.05;1.42;;;18.20;58.10;;;;;;6482754;22;20226;-82
2024/04/26 00:06:06;;;;;;;3.28;1.40;;;18.20;57.90;;;;;;6527944;21;20218;-82
2024/04/26 00:08:32;;;;;;;1.50;1.40;;;18.20;58.00;;;;;;6525600;22;20214;-83
2024/04/26 00:10:59;;;;;;;1.92;1.27;;;18.20;57.80;;;;;;6483117;22;20281;-82
2024/04/26 00:13:26;;;;;;;2.00;1.30;;;18.30;57.90;;;;;;6441417;22;20222;-83
2024/04/26 00:15:51;;;;;;;1.75;1.60;;;18.20;58.00;;;;;;6525799;22;20214;-82
2024/04/26 00:18:17;;;;;;;1.73;1.30;;;18.20;58.20;;;;;;6440597;22;20250;-82
2024/04/26 00:20:43;;;;;;;4.88;1.55;;;18.10;58.10;;;;;;6482526;22;20285;-83
2024/04/26 00:23:09;;;;;;;1.42;1.30;;;18.20;58.10;;;;;;6525610;22;20245;-82
2024/04/26 00:25:35;;;;;;;1.75;1.50;;;18.20;58.10;;;;;;6482900;22;20648;-82
2024/04/26 00:28:01;;;;;;;2.35;1.45;;;18.20;58.10;;;;;;6527602;22;20276;-83
2024/04/26 00:30:26;;;;;;;1.67;1.52;;;18.10;58.20;;;;;;6530154;21;20214;-82
2024/04/26 00:32:52;;;;;;;2.50;1.77;;;18.10;58.20;;;;;;6527962;22;20669;-82
2024/04/26 00:35:18;;;;;;;1.52;1.08;;;18.20;58.80;;;;;;6528028;22;20218;-83
2024/04/26 00:37:44;;;;;;;1.30;1.20;;;18.20;57.90;;;;;;6484988;22;20225;-82
2024/04/26 00:40:10;;;;;;;1.70;1.60;;;18.20;58.10;;;;;;6559674;21;20943;-82
2024/04/26 00:42:38;;;;;;;1.63;1.40;;;18.20;58.00;;;;;;6582209;21;20244;-82
2024/04/26 00:45:04;;;;;;;1.75;1.45;;;18.20;57.90;;;;;;6581661;21;20257;-82
2024/04/26 00:47:30;;;;;;;2.05;1.60;;;18.20;58.00;;;;;;6536243;21;20217;-83
2024/04/26 00:49:55;;;;;;;2.90;1.40;;;18.10;58.10;;;;;;6536300;21;20330;-82
2024/04/26 00:52:21;;;;;;;1.75;1.20;;;18.20;58.20;;;;;;6493363;21;20591;-83
2024/04/26 00:54:49;;;;;;;2.03;1.42;;;18.10;58.00;;;;;;6580811;21;20229;-82
2024/04/26 00:57:14;;;;;;;1.90;1.70;;;18.20;58.10;;;;;;6581489;21;20268;-83
2024/04/26 00:59:40;;;;;;;1.40;1.23;;;18.20;58.00;;;;;;6536439;21;20732;-83
2024/04/26 01:02:06;;;;;;;1.50;1.40;;;18.10;58.10;;;;;;6493420;21;20306;-82
2024/04/26 01:04:32;;;;;;;3.13;1.42;;;18.00;58.20;;;;;;6536288;21;20217;-82
2024/04/26 01:06:58;;;;;;;1.63;1.40;;;18.10;58.20;;;;;;6536543;21;20213;-83
2024/04/26 01:09:24;;;;;;;1.27;1.17;;;18.10;58.20;;;;;;6450874;21;20247;-82
2024/04/26 01:11:51;;;;;;;1.67;1.42;;;18.10;58.20;;;;;;6451220;21;20220;-82
2024/04/26 01:14:17;;;;;;;1.35;1.20;;;18.10;58.00;;;;;;6536798;21;20221;-82
2024/04/26 01:16:44;;;;;;;1.90;1.42;;;18.10;58.10;;;;;;6493280;21;20244;-82
2024/04/26 01:19:11;;;;;;;2.05;1.55;;;18.10;58.20;;;;;;6536784;21;20213;-82
2024/04/26 01:21:37;;;;;;;1.48;1.25;;;18.10;58.30;;;;;;6536300;21;20251;-82
2024/04/26 01:24:05;;;;;;;1.35;1.10;;;18.10;58.20;;;;;;6535849;21;20221;-82
2024/04/26 01:26:31;;;;;;;2.03;1.33;;;18.10;58.20;;;;;;6493987;21;20213;-82
2024/04/26 01:28:57;;;;;;;1.77;1.55;;;18.10;58.20;;;;;;6492952;21;20660;-82
2024/04/26 01:31:23;;;;;;;1.65;1.48;;;18.10;58.20;;;;;;6493088;21;20225;-82
2024/04/26 01:33:48;;;;;;;1.90;1.58;;;18.10;58.20;;;;;;6581171;21;20657;-82
2024/04/26 01:36:14;;;;;;;1.63;1.42;;;18.00;58.20;;;;;;6535898;21;20261;-82
2024/04/26 01:38:40;;;;;;;2.95;1.40;;;18.10;58.80;;;;;;6536205;21;20318;-83
2024/04/26 01:41:06;;;;;;;2.40;1.40;;;18.10;58.20;;;;;;6491969;21;20244;-82
2024/04/26 01:43:32;;;;;;;2.22;1.40;;;18.10;58.20;;;;;;6492931;21;20315;-83
2024/04/26 01:45:58;;;;;;;1.58;1.40;;;18.10;58.20;;;;;;6535618;21;20560;-83
2024/04/26 01:48:23;;;;;;;1.73;1.38;;;18.10;58.00;;;;;;6492922;21;20703;-82
2024/04/26 01:50:49;;;;;;;1.63;1.40;;;18.10;58.20;;;;;;6493263;21;20711;-83
2024/04/26 01:53:15;;;;;;;3.33;1.50;;;18.10;58.20;;;;;;6536093;21;20649;-83
2024/04/26 01:55:41;;;;;;;1.92;1.67;;;18.00;58.00;;;;;;6534792;21;20680;-83
2024/04/26 01:58:06;;;;;;;1.60;1.50;;;18.00;58.20;;;;;;6492465;21;20648;-83
2024/04/26 02:00:32;;;;;;;1.58;1.33;;;18.10;58.30;;;;;;6536398;21;20260;-83
2024/04/26 02:02:58;;;;;;;2.17;1.48;;;18.00;58.20;;;;;;6535039;21;20209;-83
2024/04/26 02:05:24;;;;;;;2.20;1.45;;;18.00;58.40;;;;;;6492343;21;20695;-83
2024/04/26 02:07:53;;;;;;;1.83;1.30;;;18.00;58.20;;;;;;6580513;21;20672;-83
2024/04/26 02:10:19;;;;;;;1.65;1.55;;;18.00;58.20;;;;;;6535840;21;20268;-83
2024/04/26 02:12:46;;;;;;;1.75;1.52;;;18.00;58.40;;;;;;6450284;21;20332;-83
2024/04/26 02:15:14;;;;;;;1.58;1.48;;;18.00;58.30;;;;;;6535720;21;20262;-82
2024/04/26 02:17:41;;;;;;;2.00;1.50;;;18.00;58.20;;;;;;6408041;21;20673;-82
2024/04/26 02:20:09;;;;;;;1.60;1.50;;;18.10;58.30;;;;;;6448602;21;20269;-83
2024/04/26 02:22:35;;;;;;;1.52;1.33;;;18.00;58.30;;;;;;6448910;21;20322;-82
2024/04/26 02:25:01;;;;;;;1.95;1.60;;;18.00;58.30;;;;;;6449630;21;20232;-82
2024/04/26 02:27:27;;;;;;;1.67;1.58;;;18.00;58.30;;;;;;6535209;21;20217;-82
2024/04/26 02:29:53;;;;;;;1.42;1.33;;;18.00;58.30;;;;;;6449984;21;20645;-82
2024/04/26 02:32:19;;;;;;;1.40;1.30;;;18.00;58.30;;;;;;6535193;21;20214;-82
2024/04/26 02:34:44;;;;;;;2.13;1.52;;;18.00;58.40;;;;;;6492716;21;20263;-82
2024/04/26 02:37:10;;;;;;;1.98;1.70;;;18.00;58.30;;;;;;6535453;21;20225;-83
2024/04/26 02:39:36;;;;;;;2.65;1.70;;;18.00;58.30;;;;;;6534993;21;20237;-82
2024/04/26 02:42:02;;;;;;;1.63;1.40;;;18.00;58.30;;;;;;6492355;21;20323;-82
2024/04/26 02:44:28;;;;;;;2.58;1.50;;;17.90;58.20;;;;;;6492207;21;20295;-83
2024/04/26 02:46:53;;;;;;;1.88;1.48;;;18.00;58.20;;;;;;6492222;21;20217;-82
2024/04/26 02:49:19;;;;;;;1.45;1.35;;;18.00;58.20;;;;;;6535044;21;20256;-82
2024/04/26 02:51:45;;;;;;;1.83;1.40;;;18.00;58.30;;;;;;6534976;21;20213;-83
2024/04/26 02:54:11;;;;;;;1.40;1.30;;;18.00;58.20;;;;;;6449772;21;20213;-82
2024/04/26 02:56:37;;;;;;;1.60;1.50;;;18.00;58.20;;;;;;6448259;21;20233;-83
2024/04/26 02:59:03;;;;;;;1.83;1.48;;;18.00;58.20;;;;;;6492191;21;20251;-82
2024/04/26 03:01:29;;;;;;;1.60;1.50;;;18.00;58.10;;;;;;6492652;21;20366;-83
2024/04/26 03:03:55;;;;;;;1.50;1.40;;;18.00;58.40;;;;;;6491882;21;20224;-84
2024/04/26 03:06:21;;;;;;;1.48;1.33;;;18.00;58.30;;;;;;6534951;21;20263;-82
2024/04/26 03:08:46;;;;;;;2.17;1.30;;;18.00;58.30;;;;;;6534713;21;20221;-83
2024/04/26 03:11:18;;;;;;;2.38;1.52;;;18.00;58.30;;;;;;6535123;21;20217;-82
2024/04/26 03:13:44;;;;;;;1.52;1.42;;;18.00;58.50;;;;;;6534644;21;20229;-83
2024/04/26 03:16:10;;;;;;;1.63;1.30;;;17.90;58.50;;;;;;6450062;21;20217;-82
2024/04/26 03:18:39;;;;;;;2.92;1.40;;;17.90;58.50;;;;;;6492228;21;20208;-83
2024/04/26 03:21:05;;;;;;;1.30;1.20;;;17.90;58.30;;;;;;6448414;21;20315;-82
2024/04/26 03:23:31;;;;;;;2.10;1.58;;;17.90;58.30;;;;;;6492236;21;21003;-83
2024/04/26 03:26:00;;;;;;;2.13;1.45;;;17.90;58.50;;;;;;6449616;21;20715;-82
2024/04/26 03:28:31;;;;;;;1.60;1.50;;;17.90;58.30;;;;;;6448440;21;20213;-83
2024/04/26 03:30:56;;;;;;;2.10;1.65;;;18.00;58.50;;;;;;6409013;21;20218;-83
2024/04/26 03:33:25;;;;;;;2.33;1.50;;;17.90;58.30;;;;;;6491679;21;20284;-83
2024/04/26 03:35:50;;;;;;;1.55;1.25;;;17.90;58.30;;;;;;6406572;21;20247;-83
2024/04/26 03:38:16;;;;;;;2.42;1.60;;;17.90;58.30;;;;;;6534693;21;20540;-82
2024/04/26 03:40:42;;;;;;;1.45;1.33;;;17.90;58.30;;;;;;6491677;21;20221;-82
2024/04/26 03:43:13;;;;;;;1.50;1.40;;;17.90;58.50;;;;;;6491535;21;20221;-82
2024/04/26 03:45:38;;;;;;;1.73;1.33;;;17.90;58.30;;;;;;6453023;21;20232;-82
2024/04/26 03:48:04;;;;;;;1.40;1.30;;;17.90;58.40;;;;;;6491654;21;20560;-82
2024/04/26 03:50:30;;;;;;;1.92;1.30;;;17.90;58.40;;;;;;6492004;21;20684;-82
2024/04/26 03:52:56;;;;;;;1.80;1.40;;;17.90;58.50;;;;;;6491861;21;20264;-82
2024/04/26 03:55:22;;;;;;;1.60;1.30;;;17.90;58.50;;;;;;6448021;21;20665;-82
2024/04/26 03:57:48;;;;;;;1.92;1.50;;;17.80;58.30;;;;;;6534605;21;20261;-82
2024/04/26 04:00:14;;;;;;;1.60;1.50;;;17.90;58.60;;;;;;6491749;21;20256;-83
2024/04/26 04:02:39;;;;;;;1.80;1.60;;;17.90;58.40;;;;;;6449476;21;20229;-83
2024/04/26 04:05:05;;;;;;;2.55;1.65;;;17.90;58.40;;;;;;6493596;21;20217;-82
2024/04/26 04:07:31;;;;;;;1.63;1.40;;;17.80;58.50;;;;;;6536807;21;20264;-82
2024/04/26 04:09:57;;;;;;;2.25;1.50;;;17.90;58.40;;;;;;6536594;21;20306;-83
2024/04/26 04:12:25;;;;;;;1.67;1.58;;;17.90;58.30;;;;;;6582605;21;20217;-82
2024/04/26 04:14:52;;;;;;;1.85;1.58;;;17.80;58.50;;;;;;6409165;21;20295;-82
2024/04/26 04:17:18;;;;;;;3.45;1.73;;;17.90;58.40;;;;;;6451276;21;20212;-82
2024/04/26 04:19:43;;;;;;;1.58;1.30;;;17.80;58.60;;;;;;6451250;21;20614;-83
2024/04/26 04:22:09;;;;;;;1.40;1.30;;;17.90;58.40;;;;;;6493763;21;20764;-82
2024/04/26 04:24:35;;;;;;;1.95;1.70;;;17.90;58.30;;;;;;6493834;21;20665;-82
2024/04/26 04:27:01;;;;;;;1.55;1.45;;;17.80;58.50;;;;;;6493853;21;20558;-82
2024/04/26 04:29:26;;;;;;;1.70;1.30;;;17.90;58.50;;;;;;6536523;21;20208;-83
2024/04/26 04:31:53;;;;;;;1.80;1.50;;;17.90;58.40;;;;;;6493478;21;20722;-83
2024/04/26 04:34:19;;;;;;;1.77;1.50;;;17.80;58.40;;;;;;6536538;21;20333;-83
2024/04/26 04:36:45;;;;;;;1.70;1.30;;;17.90;58.50;;;;;;6536817;21;20217;-82
2024/04/26 04:39:11;;;;;;;1.60;1.50;;;17.90;58.50;;;;;;6582043;21;20299;-83
2024/04/26 04:41:37;;;;;;;1.98;1.65;;;17.80;58.40;;;;;;6493193;21;20261;-83
2024/04/26 04:44:02;;;;;;;1.65;1.55;;;17.80;58.30;;;;;;6536585;21;20326;-82
2024/04/26 04:46:28;;;;;;;2.70;1.52;;;17.90;58.50;;;;;;6493767;21;20326;-82
2024/04/26 04:48:54;;;;;;;1.52;1.42;;;17.80;58.50;;;;;;6582035;21;20535;-83
2024/04/26 04:51:20;;;;;;;1.50;1.30;;;17.80;58.60;;;;;;6493447;21;20421;-82
2024/04/26 04:53:45;;;;;;;1.88;1.58;;;17.80;58.40;;;;;;6536466;21;20764;-82
2024/04/26 04:56:15;;;;;;;1.45;1.35;;;17.90;58.50;;;;;;6449802;21;20569;-82
2024/04/26 04:58:41;;;;;;;1.30;1.20;;;17.80;58.40;;;;;;6450014;21;20217;-82
2024/04/26 05:01:07;;;;;;;1.63;1.42;;;17.80;58.50;;;;;;6493429;21;20644;-83
2024/04/26 05:03:35;;;;;;;1.50;1.40;;;17.80;58.50;;;;;;6536602;21;20665;-83
2024/04/26 05:06:01;;;;;;;1.95;1.75;;;17.80;58.40;;;;;;6450012;21;20217;-82
2024/04/26 05:08:27;;;;;;;2.63;1.60;;;17.80;58.50;;;;;;6536026;21;20653;-83
2024/04/26 05:10:52;;;;;;;2.88;1.60;;;17.80;58.50;;;;;;6493178;21;20216;-83
2024/04/26 05:13:18;;;;;;;1.67;1.58;;;17.80;58.40;;;;;;6581698;21;20642;-83
2024/04/26 05:15:44;;;;;;;1.48;1.20;;;17.80;58.40;;;;;;6451188;21;20680;-82
2024/04/26 05:18:10;;;;;;;1.30;1.20;;;17.80;58.30;;;;;;6493295;21;20272;-83
2024/04/26 05:20:35;;;;;;;1.50;1.40;;;17.80;58.40;;;;;;6535807;21;20693;-82
2024/04/26 05:23:02;;;;;;;1.67;1.52;;;17.90;58.40;;;;;;6581390;21;20217;-82
2024/04/26 05:25:28;;;;;;;1.38;1.27;;;17.80;58.40;;;;;;6581507;21;20657;-82
2024/04/26 05:27:53;;;;;;;1.27;1.17;;;17.80;58.40;;;;;;6536018;21;20268;-82
2024/04/26 05:30:21;;;;;;;1.48;1.38;;;17.80;58.40;;;;;;6493078;21;20642;-82
2024/04/26 05:32:47;;;;;;;1.52;1.42;;;17.90;58.50;;;;;;6451527;21;20217;-83
2024/04/26 05:35:13;;;;;;;1.60;1.50;;;17.80;58.30;;;;;;6581599;21;20217;-82
2024/04/26 05:37:39;;;;;;;1.60;1.35;;;17.80;58.20;;;;;;6492818;21;20217;-82
2024/04/26 05:40:05;;;;;;;1.45;1.35;;;17.80;58.40;;;;;;6492445;21;20229;-82
2024/04/26 05:42:31;;;;;;;1.73;1.40;;;17.80;58.40;;;;;;6492483;21;20276;-82
2024/04/26 05:44:57;;;;;;;1.70;1.40;;;17.80;58.30;;;;;;6535304;21;20209;-82
2024/04/26 05:47:22;;;;;;;1.65;1.50;;;17.80;58.20;;;;;;6534915;21;20714;-82
2024/04/26 05:49:49;;;;;;;1.65;1.40;;;17.90;58.30;;;;;;6492574;21;20221;-84
2024/04/26 05:52:14;;;;;;;1.52;1.42;;;17.90;58.30;;;;;;6447425;21;20587;-84
2024/04/26 05:54:40;;;;;;;1.52;1.30;;;17.80;58.20;;;;;;6448148;21;20742;-81
2024/04/26 05:57:06;;;;;;;2.13;1.50;;;17.90;58.30;;;;;;6450129;21;20247;-82
2024/04/26 05:59:32;;;;;;;1.50;1.38;;;17.90;58.30;;;;;;6535444;21;20213;-82
2024/04/26 06:01:58;;;;;;;1.98;1.30;;;17.80;58.40;;;;;;6580902;21;20263;-82
2024/04/26 06:04:25;;;;;;;2.72;1.50;;;17.80;58.20;;;;;;6535580;21;20221;-82
2024/04/26 06:06:51;;;;;;;1.48;1.38;;;17.90;58.00;;;;;;6580493;21;20210;-82
2024/04/26 06:09:19;;;;;;;1.92;1.65;;;17.80;58.30;;;;;;6450136;21;20259;-82
2024/04/26 06:11:46;;;;;;;1.60;1.33;;;17.90;58.30;;;;;;6536373;21;20618;-82
2024/04/26 06:14:11;;;;;;;1.85;1.40;;;17.90;58.10;;;;;;6535315;21;20211;-82
2024/04/26 06:16:37;;;;;;;1.73;1.50;;;17.80;58.10;;;;;;6535524;21;20783;-82
2024/04/26 06:19:03;;;;;;;1.98;1.70;;;17.90;58.30;;;;;;6492371;21;20528;-82
2024/04/26 06:21:29;;;;;;;2.00;1.20;;;17.90;58.00;;;;;;6492158;21;20548;-82
2024/04/26 06:23:55;;;;;;;1.30;1.20;;;17.80;58.00;;;;;;6491905;21;20221;-82
2024/04/26 06:26:21;;;;;;;1.30;1.17;;;17.80;58.00;;;;;;6535860;21;20260;-82
2024/04/26 06:28:49;;;;;;;2.53;1.55;;;17.90;58.00;;;;;;6493094;21;20263;-83
2024/04/26 06:31:15;;;;;;;1.35;1.25;;;17.90;57.90;;;;;;6493020;21;20221;-82
2024/04/26 06:33:41;;;;;;;1.75;1.60;;;17.90;57.90;;;;;;6534872;21;20347;-82
2024/04/26 06:36:07;;;;;;;2.42;1.60;;;17.90;57.70;;;;;;6534933;21;20260;-82
2024/04/26 06:38:33;;;;;;;1.88;1.40;;;17.90;57.80;;;;;;6450345;21;20255;-83
2024/04/26 06:40:59;;;;;;;1.30;1.20;;;18.00;57.80;;;;;;6483666;22;20230;-82
2024/04/26 06:43:25;;;;;;;1.20;1.10;;;18.00;57.10;;;;;;6441426;22;20249;-82
2024/04/26 06:45:51;;;;;;;2.58;1.33;;;18.10;57.10;;;;;;6527259;22;20575;-81
2024/04/26 06:48:16;;;;;;;1.30;1.20;;;18.20;56.90;;;;;;6483738;22;20245;-82
2024/04/26 06:50:44;;;;;;;1.60;1.50;;;18.20;56.60;;;;;;6441835;22;20269;-81
2024/04/26 06:53:12;;;;;;;1.30;1.20;;;18.30;56.70;;;;;;6528670;21;20222;-81
2024/04/26 06:55:38;;;;;;;2.40;1.38;;;18.30;56.80;;;;;;6441008;22;20225;-81
2024/04/26 06:58:04;;;;;;;1.55;1.30;;;18.30;56.90;;;;;;6526047;22;20264;-82
2024/04/26 07:00:30;;;;;;;1.65;1.15;;;18.30;56.60;;;;;;6483406;22;20249;-81
2024/04/26 07:02:56;;;;;;;1.40;1.30;;;18.30;56.40;;;;;;6527786;22;20870;-82
2024/04/26 07:05:22;;;;;;;1.30;1.13;;;18.30;56.80;;;;;;6526228;22;20218;-81
2024/04/26 07:07:48;;;;;;;1.40;1.23;;;18.30;56.60;;;;;;6526603;22;20658;-82
2024/04/26 07:10:15;;;;;;;1.63;1.33;;;18.30;56.40;;;;;;6482861;22;20253;-82
2024/04/26 07:12:41;;;;;;;1.30;1.20;;;18.30;56.60;;;;;;6483655;22;20297;-82
2024/04/26 07:15:07;;;;;;;1.63;1.00;;;18.30;56.60;;;;;;6484281;22;20650;-81
2024/04/26 07:17:34;;;;;;;1.27;1.15;;;18.30;56.60;;;;;;6484286;22;20230;-81
2024/04/26 07:20:00;;;;;;;1.58;1.20;;;18.30;56.70;;;;;;6442441;22;20215;-82
2024/04/26 07:22:26;;;;;;;1.98;1.40;;;18.30;56.50;;;;;;6483406;22;20559;-81
2024/04/26 07:24:51;;;;;;;1.25;1.08;;;18.30;56.60;;;;;;6441445;22;20218;-80
2024/04/26 07:27:17;;;;;;;1.40;1.30;;;18.30;56.40;;;;;;6525453;22;20708;-82
2024/04/26 07:29:43;;;;;;;1.60;1.30;;;18.40;56.50;;;;;;6440572;22;20218;-81
2024/04/26 07:32:09;;;;;;;1.30;1.17;;;18.30;56.40;;;;;;6525118;22;20225;-82
2024/04/26 07:34:35;;;;;;;1.25;1.15;;;18.30;56.40;;;;;;6483230;22;20210;-82
2024/04/26 07:37:01;;;;;;;1.30;1.20;;;18.30;56.40;;;;;;6482952;22;20682;-82
2024/04/26 07:39:26;;;;;;;1.20;0.90;;;18.30;56.40;;;;;;6448298;21;20270;-82
2024/04/26 07:41:52;;;;;;;1.30;1.20;;;18.30;56.50;;;;;;6448859;21;20213;-82
2024/04/26 07:44:18;;;;;;;1.25;1.00;;;18.30;56.50;;;;;;6490985;21;20307;-82
2024/04/26 07:46:44;;;;;;;1.10;0.98;;;18.30;56.70;;;;;;6580329;21;20295;-82
2024/04/26 07:49:10;;;;;;;1.08;0.98;;;18.30;56.40;;;;;;6450514;21;20734;-82
2024/04/26 07:51:35;;;;;;;1.23;1.10;;;18.30;56.40;;;;;;6538002;21;20217;-82
2024/04/26 07:54:01;;;;;;;1.48;1.27;;;18.30;56.60;;;;;;6539672;21;20687;-82
2024/04/26 07:56:28;;;;;;;1.00;0.90;;;18.40;56.40;;;;;;6538662;21;20263;-84
2024/04/26 07:58:54;;;;;;;1.50;1.02;;;18.40;56.10;;;;;;6580457;21;20224;-82
2024/04/26 08:01:20;;;;;;;1.58;0.90;;;18.40;56.10;;;;;;6579649;21;20271;-82
2024/04/26 08:03:47;;;;;;;1.00;0.90;;;18.40;56.20;;;;;;6534297;21;20213;-82
2024/04/26 08:06:12;;;;;;;0.80;0.80;;;18.40;56.10;;;;;;6533717;21;20214;-81
2024/04/26 08:08:38;;;;;;;1.60;0.90;;;18.40;56.00;;;;;;6579533;21;20571;-82
2024/04/26 08:11:04;;;;;;;1.80;1.10;;;18.40;56.10;;;;;;6533961;21;20657;-82
2024/04/26 08:13:30;;;;;;;1.20;1.10;;;18.40;56.00;;;;;;6579314;21;20627;-81
2024/04/26 08:15:56;;;;;;;2.67;1.08;;;18.40;56.70;;;;;;6579562;21;20217;-82
2024/04/26 08:18:21;;;;;;;1.35;1.25;;;18.40;55.90;;;;;;6533988;21;20219;-82
2024/04/26 08:20:47;;;;;;;1.00;0.90;;;18.40;55.80;;;;;;6534605;21;20500;-82
2024/04/26 08:23:13;;;;;;;1.30;1.10;;;18.50;55.70;;;;;;6579533;21;20218;-81
2024/04/26 08:25:39;;;;;;;0.82;0.80;;;18.50;55.80;;;;;;6533827;21;20221;-82
2024/04/26 08:28:07;;;;;;;1.00;0.90;;;18.50;55.80;;;;;;6534491;21;20257;-82
2024/04/26 08:30:34;;;;;;;1.00;0.90;;;18.50;55.60;;;;;;6491591;21;20229;-82
2024/04/26 08:33:00;;;;;;;1.10;0.90;;;18.60;55.70;;;;;;6534713;21;20267;-82
2024/04/26 08:35:27;;;;;;;1.00;0.90;;;18.60;55.80;;;;;;6533945;21;20232;-82
2024/04/26 08:37:53;;;;;;;1.00;0.85;;;18.50;55.90;;;;;;6533803;21;20482;-82
2024/04/26 08:40:19;;;;;;;1.08;0.95;;;18.50;55.90;;;;;;6482030;22;20310;-82
2024/04/26 08:42:45;;;;;;;1.25;1.10;;;18.50;55.80;;;;;;6525382;22;20218;-81
2024/04/26 08:45:11;;;;;;;1.05;0.85;;;18.50;55.80;;;;;;6525695;22;20260;-82
2024/04/26 08:47:37;;;;;;;1.85;0.95;;;18.50;55.90;;;;;;6525204;22;20214;-82
2024/04/26 08:50:04;;;;;;;1.40;1.00;;;18.50;56.30;;;;;;6483802;22;20245;-82
2024/04/26 08:52:30;;;;;;;1.20;1.10;;;18.50;55.70;;;;;;6442491;22;20348;-82
2024/04/26 08:54:56;;;;;;;1.23;1.00;;;18.50;56.10;;;;;;6441808;22;20230;-82
2024/04/26 08:57:22;;;;;;;1.23;1.00;;;18.60;56.10;;;;;;6527487;22;20788;-82
2024/04/26 08:59:54;;;;;;;1.30;1.00;;;18.60;56.10;;;;;;6529197;21;20257;-81
2024/04/26 09:02:20;;;;;;;1.25;0.90;;;18.60;55.90;;;;;;6527827;22;20221;-81
2024/04/26 09:04:46;;;;;;;2.17;0.80;;;18.60;55.90;;;;;;6442838;22;20230;-81
2024/04/26 09:07:12;;;;;;;0.80;0.80;;;18.60;56.00;;;;;;6485461;22;20253;-82
2024/04/26 09:09:38;;;;;;;1.08;0.98;;;18.60;56.00;;;;;;6484463;22;20704;-83
2024/04/26 09:12:04;;;;;;;1.02;0.95;;;18.50;56.00;;;;;;6484216;22;20546;-82
2024/04/26 09:14:30;;;;;;;1.00;1.00;;;18.60;55.80;;;;;;6526938;22;20290;-82
2024/04/26 09:16:56;;;;;;;1.00;0.90;;;18.60;56.20;;;;;;6484616;22;20214;-82
2024/04/26 09:19:22;;;;;;;0.70;0.70;;;18.60;56.10;;;;;;6441997;22;20249;-82
2024/04/26 09:21:47;;;;;;;1.08;0.85;;;18.60;55.80;;;;;;6529437;21;20214;-82
2024/04/26 09:24:13;;;;;;;0.98;0.75;;;18.60;55.90;;;;;;6527281;22;20267;-82
2024/04/26 09:26:40;;;;;;;2.40;1.00;;;18.60;55.80;;;;;;6484210;22;20218;-82
2024/04/26 09:29:06;;;;;;;2.15;1.05;;;18.60;56.00;;;;;;6443017;22;20222;-82
2024/04/26 09:31:31;;;;;;;1.17;0.90;;;18.60;55.80;;;;;;6484034;22;20308;-82
2024/04/26 09:33:58;;;;;;;3.17;1.05;;;18.60;55.70;;;;;;6483808;22;20222;-84
2024/04/26 09:36:25;;;;;;;0.77;0.77;;;18.60;55.80;;;;;;6529013;22;20316;-83
2024/04/26 09:38:54;;;;;;;1.08;0.98;;;18.60;55.60;;;;;;6487101;21;20265;-82
2024/04/26 09:41:21;;;;;;;1.05;0.90;;;18.60;55.90;;;;;;6494384;21;20221;-83
2024/04/26 09:43:49;;;;;;;0.80;0.80;;;18.60;55.90;;;;;;6451923;21;20276;-83
2024/04/26 09:46:17;;;;;;;1.00;0.90;;;18.60;56.00;;;;;;6409467;21;20718;-83
2024/04/26 09:48:43;;;;;;;1.10;0.90;;;18.60;55.70;;;;;;6501390;21;20264;-83
2024/04/26 09:51:11;;;;;;;1.00;0.90;;;18.70;55.50;;;;;;6462874;21;20249;-83
2024/04/26 09:53:41;;;;;;;0.70;0.70;;;18.70;55.80;;;;;;6459894;21;20252;-83
2024/04/26 09:56:07;;;;;;;0.80;0.80;;;18.60;55.50;;;;;;6508579;21;20632;-82
2024/04/26 09:58:34;;;;;;;0.90;0.90;;;18.60;55.40;;;;;;6496183;21;20209;-81
2024/04/26 10:01:07;;;;;;;1.73;0.70;;;18.60;55.70;;;;;;6454071;21;20267;-81
2024/04/26 10:03:34;;;;;;;1.38;0.80;;;18.70;55.50;;;;;;6458164;21;20220;-82
2024/04/26 10:06:01;;;;;;;0.95;0.88;;;18.70;55.50;;;;;;6500189;21;20213;-81
2024/04/26 10:08:35;;;;;;;1.08;0.70;;;18.70;55.50;;;;;;6499212;21;20267;-83
2024/04/26 10:11:09;;;;;;;1.48;0.70;;;18.70;55.80;;;;;;6412015;21;20221;-83
2024/04/26 10:13:50;;;;;;;0.80;0.80;;;18.70;55.50;;;;;;6457754;21;20513;-82
2024/04/26 10:16:32;;;;;;;0.98;0.88;;;18.60;55.50;;;;;;6498952;21;20217;-82
2024/04/26 10:18:59;;;;;;;0.75;0.63;;;18.70;55.40;;;;;;6545158;21;20271;-82
2024/04/26 10:21:25;;;;;;;0.90;0.70;;;18.70;55.40;;;;;;6500420;21;20252;-82
2024/04/26 10:24:01;;;;;;;1.05;0.73;;;18.70;55.80;;;;;;6499053;21;20209;-82
2024/04/26 10:26:31;;;;;;;1.83;0.98;;;18.70;55.40;;;;;;6501918;21;20216;-82
2024/04/26 10:28:57;;;;;;;0.70;0.60;;;18.70;55.20;;;;;;6415396;21;20247;-82
2024/04/26 10:31:28;;;;;;;0.60;0.60;;;18.70;55.40;;;;;;6499388;21;20221;-82
2024/04/26 10:33:56;;;;;;;0.60;0.60;;;18.70;55.40;;;;;;6373270;21;20220;-82
2024/04/26 10:36:34;;;;;;;0.80;0.80;;;18.60;55.50;;;;;;6499698;21;20672;-83
2024/04/26 10:39:00;;;;;;;0.98;0.82;;;18.70;55.20;;;;;;6504009;21;20735;-83
2024/04/26 10:41:27;;;;;;;1.60;0.60;;;18.70;55.10;;;;;;6500194;21;20217;-83
2024/04/26 10:43:59;;;;;;;0.70;0.70;;;18.70;55.40;;;;;;6497980;21;20256;-84
2024/04/26 10:46:25;;;;;;;0.85;0.80;;;18.80;55.20;;;;;;6282575;22;20302;-83
2024/04/26 10:48:52;;;;;;;1.05;0.80;;;18.70;55.40;;;;;;6282575;22;20285;-83
2024/04/26 10:51:21;;;;;;;0.60;0.60;;;18.70;55.20;;;;;;6243876;22;20297;-83
2024/04/26 10:53:49;;;;;;;0.57;0.50;;;18.70;55.40;;;;;;6168205;22;20224;-82
2024/04/26 10:56:16;;;;;;;0.70;0.70;;;18.70;55.50;;;;;;6165369;22;20227;-82
2024/04/26 10:58:42;;;;;;;0.77;0.70;;;18.70;55.60;;;;;;6206064;22;20314;-82
2024/04/26 11:01:20;;;;;;;0.60;0.60;;;18.70;55.50;;;;;;6202690;22;20227;-83
2024/04/26 11:03:55;;;;;;;0.60;0.60;;;18.70;55.60;;;;;;6205634;22;20223;-83
2024/04/26 11:06:35;;;;;;;0.80;0.60;;;18.70;55.50;;;;;;6201292;22;20275;-83
2024/04/26 11:09:10;;;;;;;0.95;0.80;;;18.70;55.30;;;;;;6204637;22;20223;-83
2024/04/26 11:11:52;;;;;;;0.95;0.73;;;18.60;55.60;;;;;;6162071;22;20239;-84
2024/04/26 11:14:22;;;;;;;0.77;0.70;;;18.70;55.70;;;;;;6199638;22;20231;-83
2024/04/26 11:16:56;;;;;;;0.60;0.60;;;18.70;55.30;;;;;;6163784;22;20227;-83
2024/04/26 11:19:44;;;;;;;0.65;0.63;;;18.80;55.10;;;;;;6164540;22;20227;-84
2024/04/26 11:22:13;;;;;;;0.80;0.70;;;18.70;55.40;;;;;;6168640;22;20270;-80
2024/04/26 11:24:43;;;;;;;0.60;0.60;;;18.80;55.10;;;;;;6398286;21;20522;-82
2024/04/26 11:27:17;;;;;;;1.05;0.70;;;18.70;55.30;;;;;;6501402;21;20213;-84
2024/04/26 11:29:42;;;;;;;0.80;0.60;;;18.70;55.40;;;;;;6458486;21;20225;-84
2024/04/26 11:32:08;;;;;;;0.80;0.80;;;18.70;55.40;;;;;;6494236;21;20255;-83
2024/04/26 11:34:34;;;;;;;0.75;0.73;;;18.70;55.50;;;;;;6452551;21;20255;-83
2024/04/26 11:37:04;;;;;;;1.05;0.77;;;18.70;55.40;;;;;;6495984;21;20237;-82
2024/04/26 11:39:30;;;;;;;1.27;0.70;;;18.70;55.20;;;;;;6528853;22;20250;-80
2024/04/26 11:41:55;;;;;;;2.33;0.70;;;18.70;55.40;;;;;;6528023;22;20289;-81
2024/04/26 11:44:21;;;;;;;0.55;0.50;;;18.70;55.70;;;;;;6527495;22;20648;-82
2024/04/26 11:46:47;;;;;;;0.70;0.70;;;18.70;55.10;;;;;;6530107;22;20658;-82
2024/04/26 11:49:14;;;;;;;1.00;0.50;;;18.70;55.20;;;;;;6491144;22;20226;-82
2024/04/26 11:51:44;;;;;;;0.60;0.60;;;18.70;55.20;;;;;;6488683;22;20285;-83
2024/04/26 11:54:11;;;;;;;0.60;0.60;;;18.70;55.50;;;;;;6535570;22;20217;-84
2024/04/26 11:56:37;;;;;;;0.70;0.70;;;18.70;55.40;;;;;;6491475;22;20218;-81
2024/04/26 11:59:09;;;;;;;0.57;0.57;;;18.70;55.40;;;;;;6491383;22;20240;-83
2024/04/26 12:01:35;;;;;;;0.60;0.60;;;18.70;55.20;;;;;;6491943;22;20226;-83
2024/04/26 12:04:02;;;;;;;0.60;0.57;;;18.70;55.50;;;;;;6491765;22;20261;-83
2024/04/26 12:06:30;;;;;;;0.60;0.60;;;18.70;55.50;;;;;;6493429;22;20222;-84
2024/04/26 12:08:56;;;;;;;0.50;0.50;;;18.70;55.50;;;;;;6491842;22;20210;-82
2024/04/26 12:11:28;;;;;;;0.80;0.70;;;18.70;55.20;;;;;;6534139;22;20728;-82
2024/04/26 12:13:56;;;;;;;0.80;0.60;;;18.70;55.80;;;;;;6448089;22;20218;-81
2024/04/26 12:16:23;;;;;;;0.60;0.60;;;18.80;55.40;;;;;;6490101;22;20266;-82
2024/04/26 12:18:50;;;;;;;0.60;0.50;;;18.70;55.20;;;;;;6493448;22;20289;-83
2024/04/26 12:21:17;;;;;;;0.50;0.50;;;18.70;55.10;;;;;;6533819;22;20221;-83
2024/04/26 12:23:42;;;;;;;0.70;0.70;;;18.70;55.00;;;;;;6489605;22;20231;-82
2024/04/26 12:26:20;;;;;;;0.65;0.50;;;18.70;55.10;;;;;;6490758;22;20260;-82
2024/04/26 12:28:46;;;;;;;0.40;0.40;;;18.70;55.00;;;;;;6534943;22;20214;-81
2024/04/26 12:31:13;;;;;;;0.70;0.68;;;18.80;55.00;;;;;;6491463;22;20275;-82
2024/04/26 12:33:39;;;;;;;0.60;0.60;;;18.80;55.00;;;;;;6491149;22;20218;-81
2024/04/26 12:36:05;;;;;;;0.50;0.50;;;18.80;55.00;;;;;;6491503;22;20245;-83
2024/04/26 12:38:33;;;;;;;0.55;0.55;;;18.80;55.10;;;;;;6490896;22;20801;-83
2024/04/26 12:41:00;;;;;;;1.00;0.68;;;18.70;55.10;;;;;;6491828;22;20332;-82
2024/04/26 12:43:26;;;;;;;0.80;0.60;;;18.70;55.10;;;;;;6490202;22;20294;-81
2024/04/26 12:45:57;;;;;;;0.70;0.70;;;18.70;55.10;;;;;;6493161;22;20223;-82